Time;durP1;ratioP1;P1;durP2;ratioP2;P2;SDS_P1;SDS_P2;PMS_P1;PMS_P2;Temp;Humidity;BMP_temperature;BMP_pressure;BME280_temperature;BME280_humidity;BME280_pressure;Samples;Min_cycle;Max_cycle;Signal;HPM_P1;HPM_P2
2022/11/20 00:01:25;;;;;;;14.43;10.77;;;-1.20;99.90;;;;;;5058700;28;20245;-78
2022/11/20 00:03:53;;;;;;;12.40;9.30;;;-1.20;99.90;;;;;;5072021;28;20205;-77
2022/11/20 00:06:21;;;;;;;14.57;10.30;;;-1.20;99.90;;;;;;5054528;28;20226;-75
2022/11/20 00:08:48;;;;;;;15.73;11.03;;;-1.20;99.90;;;;;;5053485;28;20206;-78
2022/11/20 00:11:18;;;;;;;14.67;10.60;;;-1.20;99.90;;;;;;5054368;28;20202;-78
2022/11/20 00:13:46;;;;;;;15.20;10.03;;;-1.30;99.90;;;;;;5054227;28;20598;-78
2022/11/20 00:16:18;;;;;;;16.60;11.00;;;-1.30;99.90;;;;;;5053591;28;20203;-78
2022/11/20 00:18:45;;;;;;;18.73;12.23;;;-1.40;99.90;;;;;;5054697;28;20198;-77
2022/11/20 00:21:13;;;;;;;17.43;11.50;;;-1.40;99.90;;;;;;5054285;28;20210;-76
2022/11/20 00:23:41;;;;;;;18.03;11.80;;;-1.40;99.90;;;;;;5052444;28;20798;-76
2022/11/20 00:26:10;;;;;;;17.20;11.00;;;-1.50;99.90;;;;;;5053319;28;20276;-77
2022/11/20 00:28:39;;;;;;;15.73;10.90;;;-1.50;99.90;;;;;;5054519;28;20288;-78
2022/11/20 00:31:08;;;;;;;16.80;10.77;;;-1.40;99.90;;;;;;5069808;28;20201;-78
2022/11/20 00:33:35;;;;;;;13.53;10.17;;;-1.50;99.90;;;;;;5073409;28;20202;-77
2022/11/20 00:36:03;;;;;;;18.67;11.33;;;-1.40;99.90;;;;;;5061596;28;20206;-78
2022/11/20 00:38:30;;;;;;;15.87;10.93;;;-1.50;99.90;;;;;;5053684;28;20580;-76
2022/11/20 00:40:58;;;;;;;15.17;11.40;;;-1.40;99.90;;;;;;5053513;28;20206;-75
2022/11/20 00:43:25;;;;;;;16.37;10.30;;;-1.40;99.90;;;;;;5053349;28;20202;-77
2022/11/20 00:45:58;;;;;;;15.83;10.80;;;-1.40;99.90;;;;;;5054243;28;20214;-77
2022/11/20 00:48:25;;;;;;;17.67;11.43;;;-1.40;99.90;;;;;;5053781;28;20317;-77
2022/11/20 00:50:52;;;;;;;19.10;12.87;;;-1.40;99.90;;;;;;5052785;28;20198;-76
2022/11/20 00:53:19;;;;;;;19.10;12.10;;;-1.40;99.90;;;;;;5053358;28;20194;-76
2022/11/20 00:55:54;;;;;;;22.70;14.20;;;-1.40;99.90;;;;;;5068931;28;20582;-77
2022/11/20 00:58:21;;;;;;;20.27;12.87;;;-1.40;99.90;;;;;;5072577;28;20204;-77
2022/11/20 01:00:49;;;;;;;18.60;12.70;;;-1.40;99.90;;;;;;5072678;28;20208;-78
2022/11/20 01:03:17;;;;;;;20.40;12.83;;;-1.50;99.90;;;;;;5072840;28;20491;-76
2022/11/20 01:05:44;;;;;;;20.67;12.73;;;-1.50;99.90;;;;;;5069055;28;20243;-76
2022/11/20 01:08:11;;;;;;;19.60;12.97;;;-1.60;99.90;;;;;;5053562;28;20210;-77
2022/11/20 01:10:38;;;;;;;19.73;12.13;;;-1.60;99.90;;;;;;5055057;28;20198;-78
2022/11/20 01:15:49;;;;;;;17.50;11.43;;;-1.70;99.90;;;;;;5053556;28;20201;-80
2022/11/20 01:18:17;;;;;;;19.17;12.33;;;-1.70;99.90;;;;;;5052280;28;20218;-79
2022/11/20 01:20:44;;;;;;;17.27;11.13;;;-1.70;99.90;;;;;;5053007;28;20198;-80
2022/11/20 01:23:11;;;;;;;18.87;11.73;;;-1.70;99.90;;;;;;5052770;28;20555;-79
2022/11/20 01:25:38;;;;;;;17.13;11.47;;;-1.60;99.90;;;;;;5052609;28;20229;-80
2022/11/20 01:28:04;;;;;;;19.10;12.10;;;-1.70;99.90;;;;;;5052790;28;20670;-78
2022/11/20 01:30:31;;;;;;;17.13;12.00;;;-1.70;99.90;;;;;;5052363;28;20614;-80
2022/11/20 01:32:58;;;;;;;20.63;12.30;;;-1.70;99.90;;;;;;5051554;28;20198;-80
2022/11/20 01:35:27;;;;;;;14.67;10.43;;;-1.70;99.90;;;;;;5052115;28;20196;-78
2022/11/20 01:37:53;;;;;;;16.13;10.83;;;-1.70;99.90;;;;;;5052885;28;20567;-77
2022/11/20 01:40:20;;;;;;;19.13;11.40;;;-1.70;99.90;;;;;;5052334;28;20511;-78
2022/11/20 01:46:13;;;;;;;18.07;11.40;;;-1.70;99.90;;;;;;5052486;28;20565;-77
2022/11/20 01:48:46;;;;;;;16.80;11.27;;;-1.70;99.90;;;;;;5052090;28;20220;-76
2022/11/20 01:51:21;;;;;;;15.53;11.23;;;-1.70;99.90;;;;;;5052752;28;20337;-78
2022/11/20 01:53:49;;;;;;;17.67;10.67;;;-1.70;99.90;;;;;;5062521;28;20212;-78
2022/11/20 01:56:16;;;;;;;15.73;10.57;;;-1.70;99.90;;;;;;5072544;28;20194;-78
2022/11/20 01:58:49;;;;;;;16.90;10.57;;;-1.70;99.90;;;;;;5071992;28;20208;-77
2022/11/20 02:01:16;;;;;;;15.27;10.77;;;-1.70;99.90;;;;;;5051274;28;20256;-77
2022/11/20 02:03:44;;;;;;;15.93;9.73;;;-1.70;99.90;;;;;;5052567;28;20236;-78
2022/11/20 02:06:18;;;;;;;15.50;9.77;;;-1.80;99.90;;;;;;5052165;28;20221;-77
2022/11/20 02:08:45;;;;;;;15.00;10.43;;;-1.80;99.90;;;;;;5051560;28;20242;-79
2022/11/20 02:11:13;;;;;;;15.00;10.37;;;-1.80;99.90;;;;;;5052736;28;20210;-77
2022/11/20 02:13:45;;;;;;;16.07;10.73;;;-1.80;99.90;;;;;;5052709;28;20225;-77
2022/11/20 02:16:20;;;;;;;15.13;10.17;;;-1.80;99.90;;;;;;5051850;28;20186;-77
2022/11/20 02:18:47;;;;;;;15.50;10.70;;;-1.80;99.90;;;;;;5052098;28;20609;-77
2022/11/20 02:21:24;;;;;;;15.40;10.37;;;-1.80;99.90;;;;;;5051847;28;20632;-77
2022/11/20 02:24:02;;;;;;;15.63;10.07;;;-1.80;99.90;;;;;;5051731;28;20286;-77
2022/11/20 02:26:31;;;;;;;15.23;9.80;;;-1.90;99.90;;;;;;5052171;28;20225;-77
2022/11/20 02:29:01;;;;;;;12.83;9.07;;;-1.90;99.90;;;;;;5051421;28;20208;-76
2022/11/20 02:31:28;;;;;;;14.17;9.53;;;-1.90;99.90;;;;;;5052165;28;20387;-76
2022/11/20 02:33:56;;;;;;;18.17;10.53;;;-1.90;99.90;;;;;;5064832;28;20219;-77
2022/11/20 02:36:25;;;;;;;15.33;9.97;;;-1.90;99.90;;;;;;5068604;28;20185;-77
2022/11/20 02:38:52;;;;;;;15.30;10.07;;;-1.90;99.90;;;;;;5071776;28;20304;-76
2022/11/20 02:41:20;;;;;;;14.87;10.43;;;-1.90;99.90;;;;;;5070315;28;20201;-76
2022/11/20 02:43:47;;;;;;;18.87;11.27;;;-1.90;99.90;;;;;;5071170;28;20625;-77
2022/11/20 02:46:14;;;;;;;16.20;10.67;;;-1.90;99.90;;;;;;5070339;28;20640;-76
2022/11/20 02:48:41;;;;;;;15.00;9.77;;;-1.90;99.90;;;;;;5055125;28;20222;-76
2022/11/20 02:51:08;;;;;;;13.87;9.60;;;-1.90;99.90;;;;;;5055039;28;20197;-76
2022/11/20 02:53:35;;;;;;;15.13;9.77;;;-1.90;99.90;;;;;;5056230;28;20206;-77
2022/11/20 02:56:02;;;;;;;15.30;10.40;;;-1.90;99.90;;;;;;5038511;28;20193;-77
2022/11/20 02:58:30;;;;;;;14.77;10.13;;;-1.90;99.90;;;;;;5055220;28;20201;-77
2022/11/20 03:00:57;;;;;;;14.97;9.80;;;-2.00;99.90;;;;;;5055220;28;20202;-77
2022/11/20 03:03:23;;;;;;;14.97;10.07;;;-2.00;99.90;;;;;;5056093;28;20208;-77
2022/11/20 03:05:50;;;;;;;15.93;9.83;;;-2.00;99.90;;;;;;5054911;28;20686;-77
2022/11/20 03:08:17;;;;;;;15.30;10.53;;;-2.00;99.90;;;;;;5055677;28;20204;-77
2022/11/20 03:10:44;;;;;;;14.23;9.80;;;-2.00;99.90;;;;;;5054907;28;20663;-76
2022/11/20 03:13:11;;;;;;;15.57;10.57;;;-2.10;99.90;;;;;;5055482;28;20293;-76
2022/11/20 03:15:39;;;;;;;13.93;9.83;;;-2.10;99.90;;;;;;5055437;28;20201;-78
2022/11/20 03:18:06;;;;;;;13.47;9.27;;;-2.10;99.90;;;;;;5054845;28;20213;-77
2022/11/20 03:20:34;;;;;;;16.57;9.23;;;-2.10;99.90;;;;;;5055728;28;20202;-77
2022/11/20 03:23:01;;;;;;;13.67;9.07;;;-2.10;99.90;;;;;;5055243;28;20237;-76
2022/11/20 03:25:28;;;;;;;18.20;11.17;;;-2.10;99.90;;;;;;5054658;28;20221;-77
2022/11/20 03:27:55;;;;;;;14.37;9.33;;;-2.10;99.90;;;;;;5054424;28;20326;-77
2022/11/20 03:30:22;;;;;;;15.10;9.73;;;-2.10;99.90;;;;;;5055262;28;20706;-76
2022/11/20 03:32:54;;;;;;;15.77;10.07;;;-2.10;99.90;;;;;;5054036;28;20205;-76
2022/11/20 03:35:21;;;;;;;16.50;10.30;;;-2.10;99.90;;;;;;5054904;28;20213;-76
2022/11/20 03:37:48;;;;;;;14.87;9.77;;;-2.10;99.90;;;;;;5055138;28;20206;-76
2022/11/20 03:40:15;;;;;;;15.33;10.97;;;-2.10;99.90;;;;;;5054658;28;20293;-76
2022/11/20 03:42:47;;;;;;;14.27;10.10;;;-2.10;99.90;;;;;;5055201;28;20202;-76
2022/11/20 03:45:15;;;;;;;14.13;9.60;;;-2.10;99.90;;;;;;5054337;28;20625;-76
2022/11/20 03:47:42;;;;;;;14.20;9.67;;;-2.10;99.90;;;;;;5053896;28;20198;-77
2022/11/20 03:50:12;;;;;;;14.53;10.77;;;-2.10;99.90;;;;;;5054695;28;20243;-77
2022/11/20 03:52:40;;;;;;;16.37;9.97;;;-2.10;99.90;;;;;;5054482;28;20202;-76
2022/11/20 03:55:07;;;;;;;16.30;10.40;;;-2.10;99.90;;;;;;5054713;28;20209;-76
2022/11/20 03:57:34;;;;;;;13.80;9.23;;;-2.20;99.90;;;;;;5054254;28;20216;-76
2022/11/20 04:00:01;;;;;;;14.07;9.67;;;-2.20;99.90;;;;;;5053198;28;20212;-76
2022/11/20 04:02:27;;;;;;;13.20;9.33;;;-2.20;99.90;;;;;;5054528;28;20492;-76
2022/11/20 04:04:54;;;;;;;12.23;9.20;;;-2.20;99.90;;;;;;5054906;28;20865;-76
2022/11/20 04:07:23;;;;;;;15.17;8.83;;;-2.10;99.90;;;;;;5053440;28;20233;-76
2022/11/20 04:09:49;;;;;;;13.87;9.20;;;-2.10;99.90;;;;;;5054034;28;20206;-77
2022/11/20 04:12:16;;;;;;;15.07;9.33;;;-2.10;99.90;;;;;;5054481;28;20209;-76
2022/11/20 04:14:43;;;;;;;14.97;9.53;;;-2.10;99.90;;;;;;5053623;28;20209;-75
2022/11/20 04:17:10;;;;;;;12.33;8.63;;;-2.10;99.90;;;;;;5053582;28;20206;-76
2022/11/20 04:19:37;;;;;;;14.17;9.30;;;-2.10;99.90;;;;;;5053937;28;20208;-77
2022/11/20 04:22:03;;;;;;;13.67;9.07;;;-2.20;99.90;;;;;;5053378;28;20209;-76
2022/11/20 04:24:32;;;;;;;13.67;9.67;;;-2.20;99.90;;;;;;5053577;28;20238;-76
2022/11/20 04:26:58;;;;;;;16.20;9.40;;;-2.20;99.90;;;;;;5053974;28;20226;-76
2022/11/20 04:29:25;;;;;;;14.27;9.70;;;-2.20;99.90;;;;;;5053062;28;20205;-76
2022/11/20 04:31:52;;;;;;;14.60;9.53;;;-2.20;99.90;;;;;;5053786;28;20200;-76
2022/11/20 04:34:19;;;;;;;13.97;9.13;;;-2.20;99.90;;;;;;5054163;28;20299;-76
2022/11/20 04:36:46;;;;;;;15.33;9.77;;;-2.20;99.90;;;;;;5053226;28;20209;-76
2022/11/20 04:39:15;;;;;;;13.67;9.53;;;-2.20;99.90;;;;;;5054117;28;20202;-76
2022/11/20 04:41:43;;;;;;;16.07;9.90;;;-2.20;99.90;;;;;;5053329;28;20486;-76
2022/11/20 04:44:10;;;;;;;15.60;9.67;;;-2.20;99.90;;;;;;5053245;28;20198;-76
2022/11/20 04:46:39;;;;;;;12.97;8.70;;;-2.20;99.90;;;;;;5053366;28;20222;-76
2022/11/20 04:49:06;;;;;;;13.83;10.70;;;-2.20;99.90;;;;;;5053734;28;20226;-76
2022/11/20 04:51:34;;;;;;;13.80;8.90;;;-2.20;99.90;;;;;;5053255;28;20194;-76
2022/11/20 04:54:01;;;;;;;13.23;9.33;;;-2.20;99.90;;;;;;5053579;28;20783;-77
2022/11/20 04:56:28;;;;;;;14.53;9.57;;;-2.20;99.90;;;;;;5052998;28;20925;-76
2022/11/20 04:59:00;;;;;;;15.53;9.77;;;-2.20;99.90;;;;;;5054040;28;20209;-76
2022/11/20 05:01:27;;;;;;;14.33;9.40;;;-2.20;99.90;;;;;;5053415;28;20528;-76
2022/11/20 05:03:54;;;;;;;12.20;8.00;;;-2.20;99.90;;;;;;5052180;28;20617;-76
2022/11/20 05:06:22;;;;;;;15.97;8.97;;;-2.30;99.90;;;;;;5053263;28;20226;-76
2022/11/20 05:08:50;;;;;;;14.17;9.30;;;-2.30;99.90;;;;;;5053124;28;20206;-76
2022/11/20 05:11:18;;;;;;;14.60;10.20;;;-2.20;99.90;;;;;;5051284;28;20210;-76
2022/11/20 05:13:45;;;;;;;13.80;9.40;;;-2.20;99.90;;;;;;5053099;28;20509;-75
2022/11/20 05:16:15;;;;;;;14.60;8.97;;;-2.20;99.90;;;;;;5053306;28;20547;-76
2022/11/20 05:18:42;;;;;;;13.27;9.40;;;-2.20;99.90;;;;;;5052901;28;20616;-77
2022/11/20 05:21:10;;;;;;;15.10;9.17;;;-2.20;99.90;;;;;;5052687;28;20190;-75
2022/11/20 05:23:38;;;;;;;13.10;9.33;;;-2.20;99.90;;;;;;5052959;28;20230;-76
2022/11/20 05:26:06;;;;;;;15.80;9.57;;;-2.20;99.90;;;;;;5053944;28;20659;-76
2022/11/20 05:28:34;;;;;;;16.07;9.67;;;-2.20;99.90;;;;;;5064145;28;20205;-77
2022/11/20 05:31:09;;;;;;;15.23;9.83;;;-2.20;99.90;;;;;;5052677;28;20206;-77
2022/11/20 05:33:37;;;;;;;12.70;8.93;;;-2.20;99.90;;;;;;5051723;28;20212;-77
2022/11/20 05:36:05;;;;;;;14.30;9.50;;;-2.20;99.90;;;;;;5053005;28;20289;-77
2022/11/20 05:38:32;;;;;;;13.70;9.27;;;-2.20;99.90;;;;;;5052495;28;20205;-77
2022/11/20 05:41:05;;;;;;;12.87;9.20;;;-2.20;99.90;;;;;;5051603;28;20301;-76
2022/11/20 05:43:34;;;;;;;15.67;9.60;;;-2.10;99.90;;;;;;5052836;28;20252;-76
2022/11/20 05:46:01;;;;;;;13.33;9.07;;;-2.20;99.90;;;;;;5052132;28;20218;-77
2022/11/20 05:48:28;;;;;;;14.90;9.90;;;-2.10;99.90;;;;;;5051818;28;20263;-77
2022/11/20 05:50:58;;;;;;;13.57;9.70;;;-2.20;99.90;;;;;;5052720;28;20213;-77
2022/11/20 05:53:25;;;;;;;16.93;10.73;;;-2.10;99.90;;;;;;5052306;28;20206;-77
2022/11/20 05:55:58;;;;;;;16.60;10.83;;;-2.10;99.90;;;;;;5065016;28;20205;-76
2022/11/20 05:58:25;;;;;;;17.30;10.43;;;-2.10;99.90;;;;;;5073640;28;20747;-77
2022/11/20 06:00:52;;;;;;;18.27;10.83;;;-2.10;99.90;;;;;;5065452;28;20288;-76
2022/11/20 06:03:19;;;;;;;13.63;9.87;;;-2.00;99.90;;;;;;5052433;28;20205;-76
2022/11/20 06:05:46;;;;;;;14.03;9.47;;;-2.00;99.90;;;;;;5052028;28;20294;-75
2022/11/20 06:08:14;;;;;;;16.83;10.80;;;-2.00;99.90;;;;;;5051760;28;20202;-76
2022/11/20 06:10:41;;;;;;;14.47;10.00;;;-2.00;99.90;;;;;;5052746;28;20296;-76
2022/11/20 06:13:08;;;;;;;15.67;10.50;;;-2.00;99.90;;;;;;5052268;28;20213;-77
2022/11/20 06:15:34;;;;;;;13.17;9.17;;;-1.90;99.90;;;;;;5051296;28;20205;-76
2022/11/20 06:18:01;;;;;;;15.57;10.73;;;-1.90;99.90;;;;;;5052282;28;20288;-75
2022/11/20 06:20:28;;;;;;;16.40;11.30;;;-1.80;99.90;;;;;;5052071;28;20292;-75
2022/11/20 06:22:55;;;;;;;16.77;10.53;;;-1.80;99.90;;;;;;5050371;28;20693;-75
2022/11/20 06:25:23;;;;;;;17.53;11.00;;;-1.80;99.90;;;;;;5052239;28;20288;-74
2022/11/20 06:27:50;;;;;;;17.53;11.60;;;-1.80;99.90;;;;;;5051076;28;20630;-76
2022/11/20 06:30:17;;;;;;;14.40;10.07;;;-1.70;99.90;;;;;;5051757;28;20241;-76
2022/11/20 06:32:44;;;;;;;18.13;11.20;;;-1.70;99.90;;;;;;5051580;28;20626;-75
2022/11/20 06:35:11;;;;;;;17.20;11.27;;;-1.70;99.90;;;;;;5051470;28;20202;-75
2022/11/20 06:37:38;;;;;;;18.20;11.47;;;-1.60;99.90;;;;;;5051921;28;20200;-75
2022/11/20 06:40:06;;;;;;;17.20;11.23;;;-1.60;99.90;;;;;;5051983;28;20292;-76
2022/11/20 06:42:34;;;;;;;15.60;10.93;;;-1.60;99.90;;;;;;5051673;28;20262;-75
2022/11/20 06:45:01;;;;;;;17.67;11.67;;;-1.60;99.90;;;;;;5052066;28;20202;-76
2022/11/20 06:47:28;;;;;;;16.40;11.40;;;-1.50;99.90;;;;;;5052161;28;20221;-76
2022/11/20 06:49:55;;;;;;;16.30;10.33;;;-1.50;99.90;;;;;;5066768;28;20228;-76
2022/11/20 06:52:22;;;;;;;14.40;10.20;;;-1.50;99.90;;;;;;5071611;28;20197;-76
2022/11/20 06:54:49;;;;;;;16.53;11.37;;;-1.50;99.90;;;;;;5053846;28;20293;-75
2022/11/20 06:57:16;;;;;;;17.07;11.50;;;-1.40;99.90;;;;;;5050779;28;20212;-75
2022/11/20 06:59:44;;;;;;;18.27;11.20;;;-1.40;99.90;;;;;;5051524;28;20587;-75
2022/11/20 07:02:12;;;;;;;18.20;11.40;;;-1.40;99.90;;;;;;5051776;28;20202;-76
2022/11/20 07:04:39;;;;;;;16.97;11.37;;;-1.40;99.90;;;;;;5051253;28;20212;-76
2022/11/20 07:07:06;;;;;;;16.93;10.77;;;-1.40;99.90;;;;;;5051452;28;20229;-76
2022/11/20 07:09:33;;;;;;;20.50;12.17;;;-1.30;99.90;;;;;;5051588;28;20244;-75
2022/11/20 07:12:00;;;;;;;15.30;10.97;;;-1.30;99.90;;;;;;5051072;28;20198;-74
2022/11/20 07:14:27;;;;;;;19.23;11.47;;;-1.30;99.90;;;;;;5064808;28;20202;-77
2022/11/20 07:16:55;;;;;;;17.10;11.80;;;-1.30;99.90;;;;;;5059030;28;20190;-76
2022/11/20 07:19:22;;;;;;;20.57;12.97;;;-1.30;99.90;;;;;;5057369;28;20205;-75
2022/11/20 07:21:49;;;;;;;21.70;13.50;;;-1.20;99.90;;;;;;5051357;28;20198;-75
2022/11/20 07:24:15;;;;;;;21.43;13.10;;;-1.20;99.90;;;;;;5050247;28;20230;-76
2022/11/20 07:26:43;;;;;;;20.87;13.23;;;-1.20;99.90;;;;;;5051132;28;20226;-76
2022/11/20 07:29:09;;;;;;;18.93;12.80;;;-1.10;99.90;;;;;;5058985;28;20229;-77
2022/11/20 07:31:36;;;;;;;20.67;12.80;;;-1.10;99.90;;;;;;5063049;28;20206;-77
2022/11/20 07:34:04;;;;;;;20.70;13.63;;;-1.10;99.90;;;;;;5055844;28;20305;-77
2022/11/20 07:36:31;;;;;;;18.97;12.83;;;-1.00;99.90;;;;;;5055227;28;20206;-76
2022/11/20 07:38:58;;;;;;;21.47;13.80;;;-1.00;99.90;;;;;;5054348;28;20205;-78
2022/11/20 07:41:25;;;;;;;19.33;13.30;;;-1.00;99.90;;;;;;5054815;28;20656;-77
2022/11/20 07:43:52;;;;;;;20.30;13.67;;;-0.90;99.90;;;;;;5054984;28;20209;-77
2022/11/20 07:46:19;;;;;;;19.53;13.57;;;-0.90;99.90;;;;;;5053796;28;20661;-77
2022/11/20 07:48:45;;;;;;;23.83;15.50;;;-0.80;99.90;;;;;;5061217;28;20220;-77
2022/11/20 07:51:14;;;;;;;21.53;14.03;;;-0.80;99.90;;;;;;5059334;28;20237;-80
2022/11/20 07:53:41;;;;;;;21.27;14.20;;;-0.80;99.90;;;;;;5053404;28;20198;-76
2022/11/20 07:56:08;;;;;;;19.23;13.73;;;-0.70;99.90;;;;;;5054660;28;20213;-76
2022/11/20 07:58:35;;;;;;;23.53;15.63;;;-0.70;99.90;;;;;;5054359;28;20190;-78
2022/11/20 08:01:06;;;;;;;22.13;14.73;;;-0.70;99.90;;;;;;5051923;28;20209;-76
2022/11/20 08:03:32;;;;;;;24.30;15.37;;;-0.60;99.90;;;;;;5053080;28;20206;-76
2022/11/20 08:06:00;;;;;;;20.33;14.63;;;-0.60;99.90;;;;;;5052665;28;20205;-75
2022/11/20 08:08:29;;;;;;;23.03;15.17;;;-0.60;99.90;;;;;;5052653;28;20229;-75
2022/11/20 08:14:11;;;;;;;25.57;16.77;;;-0.50;99.90;;;;;;5053123;28;20210;-77
2022/11/20 08:16:29;;;;;;;23.73;16.23;;;-0.50;99.90;;;;;;5053967;28;20189;-75
2022/11/20 08:18:56;;;;;;;22.50;15.53;;;-0.40;99.90;;;;;;5054105;28;20206;-77
2022/11/20 08:21:23;;;;;;;26.13;17.13;;;-0.40;99.90;;;;;;5053562;28;20210;-76
2022/11/20 08:23:52;;;;;;;25.13;16.53;;;-0.40;99.90;;;;;;5053119;28;20237;-76
2022/11/20 08:26:18;;;;;;;25.10;17.07;;;-0.30;99.90;;;;;;5054109;28;20556;-75
2022/11/20 08:28:45;;;;;;;26.27;17.97;;;-0.30;99.90;;;;;;5052708;28;20569;-76
2022/11/20 08:31:12;;;;;;;24.87;17.10;;;-0.30;99.90;;;;;;5064930;28;20292;-77
2022/11/20 08:33:39;;;;;;;25.47;17.43;;;-0.20;99.90;;;;;;5066280;28;20787;-77
2022/11/20 08:36:07;;;;;;;25.47;16.87;;;-0.20;99.90;;;;;;5064545;28;20227;-77
2022/11/20 08:38:34;;;;;;;24.37;16.87;;;-0.20;99.90;;;;;;5064718;28;20205;-77
2022/11/20 08:43:49;;;;;;;25.70;16.47;;;-0.10;99.90;;;;;;5061911;28;21114;-76
2022/11/20 08:46:16;;;;;;;22.87;16.70;;;0.00;99.90;;;;;;5052853;28;20224;-76
2022/11/20 08:48:43;;;;;;;23.33;16.97;;;0.00;99.90;;;;;;5063105;28;20236;-76
2022/11/20 08:51:11;;;;;;;26.10;17.07;;;0.10;99.90;;;;;;5059735;28;20201;-77
2022/11/20 08:53:38;;;;;;;25.10;17.07;;;0.10;99.90;;;;;;5069167;28;20209;-77
2022/11/20 08:56:07;;;;;;;22.70;16.67;;;0.20;99.90;;;;;;5052650;28;20253;-76
2022/11/20 08:58:34;;;;;;;23.50;17.10;;;0.20;99.90;;;;;;5059313;28;20216;-78
2022/11/20 09:01:01;;;;;;;25.23;16.23;;;0.20;99.90;;;;;;5052531;28;20206;-77
2022/11/20 09:03:29;;;;;;;21.63;16.23;;;0.30;99.90;;;;;;5055325;28;21891;-77
2022/11/20 09:05:59;;;;;;;25.23;16.43;;;0.30;99.90;;;;;;5053908;28;20607;-78
2022/11/20 09:08:26;;;;;;;23.90;17.20;;;0.30;99.90;;;;;;5052978;28;20210;-78
2022/11/20 09:10:53;;;;;;;23.23;16.63;;;0.40;99.90;;;;;;5052611;28;20206;-78
2022/11/20 09:13:22;;;;;;;23.33;16.07;;;0.40;99.90;;;;;;5052878;28;20193;-79
2022/11/20 09:15:54;;;;;;;23.63;17.33;;;0.50;99.90;;;;;;5053189;28;20202;-79
2022/11/20 09:18:21;;;;;;;23.93;16.10;;;0.50;99.90;;;;;;5052389;28;20198;-78
2022/11/20 09:20:48;;;;;;;20.90;15.73;;;0.60;99.90;;;;;;5052761;28;20647;-78
2022/11/20 09:23:15;;;;;;;24.93;15.70;;;0.60;99.90;;;;;;5052497;28;20244;-79
2022/11/20 09:25:42;;;;;;;23.43;16.00;;;0.70;99.90;;;;;;5052235;28;20196;-80
2022/11/20 09:28:09;;;;;;;22.60;15.97;;;0.80;99.90;;;;;;5052736;28;20633;-78
2022/11/20 09:30:38;;;;;;;23.87;16.83;;;0.80;99.90;;;;;;5052272;28;20212;-79
2022/11/20 09:33:06;;;;;;;22.73;16.60;;;0.90;99.90;;;;;;5052095;28;20512;-79
2022/11/20 09:35:33;;;;;;;25.50;17.00;;;0.90;99.90;;;;;;5052732;28;20213;-78
2022/11/20 09:38:04;;;;;;;24.87;16.70;;;1.00;99.90;;;;;;5051568;28;20209;-80
2022/11/20 09:40:31;;;;;;;25.00;17.40;;;1.00;99.90;;;;;;5054814;28;20248;-77
2022/11/20 09:43:03;;;;;;;24.33;16.67;;;1.00;99.90;;;;;;5072432;28;20204;-78
2022/11/20 09:45:45;;;;;;;21.53;16.13;;;1.10;99.90;;;;;;5061856;28;20197;-80
2022/11/20 09:48:27;;;;;;;25.30;17.03;;;1.10;99.90;;;;;;5052637;28;20321;-78
2022/11/20 09:51:01;;;;;;;20.80;16.10;;;1.10;99.90;;;;;;5052706;28;20206;-80
2022/11/20 09:53:36;;;;;;;27.00;16.93;;;1.20;99.90;;;;;;5052226;28;20201;-80
2022/11/20 09:56:04;;;;;;;26.70;16.57;;;1.20;99.90;;;;;;5072167;28;20568;-81
2022/11/20 09:58:36;;;;;;;23.23;16.57;;;1.30;99.90;;;;;;5053204;28;20495;-80
2022/11/20 10:01:12;;;;;;;22.80;15.80;;;1.30;99.90;;;;;;5052124;28;20859;-76
2022/11/20 10:03:46;;;;;;;23.37;16.07;;;1.40;99.90;;;;;;5053696;28;20201;-81
2022/11/20 10:06:17;;;;;;;22.47;16.50;;;1.40;99.90;;;;;;5052842;28;20878;-82
2022/11/20 10:08:52;;;;;;;23.23;16.60;;;1.40;99.90;;;;;;5065523;28;20220;-81
2022/11/20 10:11:29;;;;;;;24.87;16.63;;;1.50;99.90;;;;;;5055734;28;20565;-82
2022/11/20 10:14:03;;;;;;;25.23;17.27;;;1.50;99.90;;;;;;5072280;28;20196;-81
2022/11/20 10:16:40;;;;;;;24.57;17.53;;;1.60;99.90;;;;;;5059754;28;20206;-82
2022/11/20 10:19:21;;;;;;;24.67;16.77;;;1.60;99.90;;;;;;5072074;28;20687;-82
2022/11/20 10:22:00;;;;;;;24.57;16.50;;;1.70;99.90;;;;;;5066146;28;20205;-83
2022/11/20 10:24:43;;;;;;;23.27;16.70;;;1.70;99.90;;;;;;5058903;28;20652;-82
2022/11/20 10:27:30;;;;;;;24.47;17.53;;;1.70;99.90;;;;;;5072169;28;20586;-82
2022/11/20 10:30:04;;;;;;;24.10;17.27;;;1.80;99.90;;;;;;5053159;28;20205;-82
2022/11/20 10:32:38;;;;;;;23.67;17.33;;;1.80;99.90;;;;;;5052707;28;20208;-82
2022/11/20 10:35:16;;;;;;;22.60;16.30;;;1.90;99.90;;;;;;5052832;28;20198;-82
2022/11/20 10:37:46;;;;;;;26.27;16.70;;;1.90;99.90;;;;;;5059283;28;20196;-81
2022/11/20 10:40:22;;;;;;;22.50;15.90;;;2.00;99.90;;;;;;5073240;28;20206;-82
2022/11/20 10:42:55;;;;;;;24.27;17.30;;;2.00;99.90;;;;;;5071371;28;20227;-83
2022/11/20 10:45:39;;;;;;;23.10;16.50;;;2.00;99.90;;;;;;5053357;28;20212;-81
2022/11/20 10:48:17;;;;;;;24.80;17.47;;;2.10;99.90;;;;;;5052661;28;20663;-82
2022/11/20 10:51:04;;;;;;;23.97;16.30;;;2.10;99.90;;;;;;5072657;28;20201;-81
2022/11/20 10:53:57;;;;;;;28.97;18.53;;;2.10;99.90;;;;;;5072470;28;20210;-82
2022/11/20 10:56:31;;;;;;;25.33;17.43;;;2.20;99.90;;;;;;5072876;28;20196;-82
2022/11/20 10:59:15;;;;;;;25.53;17.07;;;2.30;99.90;;;;;;5072549;28;20224;-82
2022/11/20 11:01:43;;;;;;;24.23;16.07;;;2.30;99.90;;;;;;5068341;28;20281;-82
2022/11/20 11:04:24;;;;;;;25.27;17.10;;;2.30;99.90;;;;;;5053508;28;20210;-83
2022/11/20 11:06:55;;;;;;;24.37;16.87;;;2.40;99.90;;;;;;5053282;28;20273;-82
2022/11/20 11:09:33;;;;;;;25.23;16.93;;;2.40;99.90;;;;;;5055269;28;20304;-82
2022/11/20 11:12:00;;;;;;;27.67;18.13;;;2.40;99.90;;;;;;5056735;28;20224;-81
2022/11/20 11:14:27;;;;;;;24.83;16.70;;;2.40;99.90;;;;;;5056450;28;20212;-81
2022/11/20 11:16:56;;;;;;;22.20;16.13;;;2.40;99.90;;;;;;5056901;28;20198;-81
2022/11/20 11:19:25;;;;;;;24.03;16.97;;;2.50;99.90;;;;;;5056232;28;20198;-82
2022/11/20 11:21:54;;;;;;;26.23;17.83;;;2.50;99.90;;;;;;5068320;28;20621;-80
2022/11/20 11:24:23;;;;;;;23.67;16.40;;;2.50;99.90;;;;;;5075378;28;20269;-81
2022/11/20 11:26:59;;;;;;;22.20;15.77;;;2.50;99.90;;;;;;5056241;28;20194;-80
2022/11/20 11:29:29;;;;;;;27.07;18.93;;;2.50;99.90;;;;;;5055995;28;20313;-81
2022/11/20 11:32:06;;;;;;;26.07;16.77;;;2.50;99.90;;;;;;5055880;28;20482;-81
2022/11/20 11:34:35;;;;;;;22.90;16.20;;;2.50;99.90;;;;;;5055618;28;20620;-81
2022/11/20 11:37:04;;;;;;;23.97;17.03;;;2.50;99.90;;;;;;5056151;28;20266;-80
2022/11/20 11:39:33;;;;;;;24.60;17.17;;;2.60;99.90;;;;;;5055861;28;20194;-80
2022/11/20 11:42:01;;;;;;;25.87;17.67;;;2.60;99.90;;;;;;5055860;28;20244;-81
2022/11/20 11:47:24;;;;;;;26.27;16.97;;;2.70;99.90;;;;;;5066696;28;20205;-82
2022/11/20 11:50:14;;;;;;;23.53;15.83;;;2.70;99.90;;;;;;5056800;28;20245;-80
2022/11/20 11:52:46;;;;;;;27.07;18.83;;;2.70;99.90;;;;;;5055648;28;20213;-81
2022/11/20 11:55:18;;;;;;;27.67;18.90;;;2.70;99.90;;;;;;5055977;28;20209;-83
2022/11/20 11:57:50;;;;;;;26.27;18.33;;;2.80;99.90;;;;;;5055868;28;20244;-84
2022/11/20 12:00:20;;;;;;;30.57;18.33;;;2.80;99.90;;;;;;5056006;28;20200;-82
2022/11/20 12:02:57;;;;;;;24.47;17.70;;;2.90;99.90;;;;;;5055851;28;20190;-82
2022/11/20 12:05:30;;;;;;;28.00;18.87;;;2.90;99.90;;;;;;5055807;28;20658;-82
2022/11/20 12:08:03;;;;;;;28.67;19.37;;;2.90;99.90;;;;;;5056075;28;20218;-81
2022/11/20 12:10:47;;;;;;;29.83;20.27;;;2.90;99.90;;;;;;5057000;28;20271;-81
2022/11/20 12:13:22;;;;;;;32.60;20.57;;;2.90;99.90;;;;;;5056030;28;20209;-83
2022/11/20 12:15:49;;;;;;;26.87;18.40;;;2.90;99.90;;;;;;5055815;28;20194;-83
2022/11/20 12:18:20;;;;;;;30.13;20.17;;;2.90;99.90;;;;;;5055772;28;20288;-84
2022/11/20 12:20:59;;;;;;;32.30;21.07;;;3.00;99.90;;;;;;5055358;28;20186;-83
2022/11/20 12:23:36;;;;;;;31.90;21.83;;;3.00;99.90;;;;;;5055767;28;20239;-84
2022/11/20 12:26:14;;;;;;;34.00;22.70;;;3.00;99.90;;;;;;5055554;28;20609;-83
2022/11/20 12:28:54;;;;;;;29.13;20.33;;;3.10;99.90;;;;;;5055916;28;20523;-84
2022/11/20 12:31:42;;;;;;;30.43;20.17;;;3.00;99.90;;;;;;5055409;28;20208;-81
2022/11/20 12:34:22;;;;;;;34.27;22.83;;;3.10;99.90;;;;;;5066512;28;20240;-82
2022/11/20 12:36:57;;;;;;;31.57;21.00;;;3.10;99.90;;;;;;5066059;28;20213;-81
2022/11/20 12:39:38;;;;;;;34.43;23.27;;;3.10;99.90;;;;;;5059197;28;20277;-83
2022/11/20 12:45:36;;;;;;;33.83;22.03;;;3.10;99.90;;;;;;5071059;28;20192;-81
2022/11/20 12:48:39;;;;;;;40.43;24.80;;;3.10;99.90;;;;;;5059558;28;20217;-81
2022/11/20 12:51:33;;;;;;;39.03;24.20;;;3.20;99.90;;;;;;5053884;28;20260;-82
2022/11/20 12:54:25;;;;;;;37.63;24.17;;;3.20;99.90;;;;;;5054677;28;20252;-82
2022/11/20 12:57:00;;;;;;;36.30;24.17;;;3.10;99.90;;;;;;5060012;28;20206;-81
2022/11/20 12:59:44;;;;;;;38.10;23.97;;;3.20;99.90;;;;;;5054480;28;20197;-82
2022/11/20 13:02:25;;;;;;;38.13;23.80;;;3.20;99.90;;;;;;5054228;28;20214;-80
2022/11/20 13:05:13;;;;;;;40.50;24.80;;;3.20;99.90;;;;;;5054964;28;20194;-82